createdAt,value
2016-08-20T00:00:02.779Z,0
2016-08-20T00:01:01.481Z,0
2016-08-20T00:02:02.701Z,0
2016-08-20T00:03:03.480Z,0
2016-08-20T00:04:02.482Z,0
2016-08-20T00:05:01.056Z,0
2016-08-20T00:06:01.863Z,0
2016-08-20T00:07:04.116Z,0
2016-08-20T00:08:04.605Z,0
2016-08-20T00:09:01.489Z,0
2016-08-20T00:10:02.751Z,0
2016-08-20T00:11:02.662Z,0
2016-08-20T00:12:02.866Z,0
2016-08-20T00:13:01.323Z,0
2016-08-20T00:14:01.925Z,0
2016-08-20T00:15:03.030Z,0
2016-08-20T00:16:03.763Z,0
2016-08-20T00:17:01.922Z,0
2016-08-20T00:18:02.400Z,0
2016-08-20T00:19:03.974Z,0
2016-08-20T00:20:02.522Z,0
2016-08-20T00:21:04.211Z,0
2016-08-20T00:22:01.529Z,0
2016-08-20T00:23:02.693Z,0
2016-08-20T00:24:03.854Z,0
2016-08-20T00:25:04.013Z,0
2016-08-20T00:26:01.955Z,0
2016-08-20T00:27:03.371Z,0
2016-08-20T00:28:03.015Z,0
2016-08-20T00:29:02.498Z,0
2016-08-20T00:30:02.312Z,0
2016-08-20T00:31:04.299Z,0
2016-08-20T00:32:05.041Z,0
2016-08-20T00:33:04.151Z,0
2016-08-20T00:34:04.266Z,0
2016-08-20T00:35:04.207Z,0
2016-08-20T00:36:01.193Z,0
2016-08-20T00:37:04.134Z,0
2016-08-20T00:38:03.338Z,0
2016-08-20T00:39:01.740Z,0
2016-08-20T00:40:03.324Z,0
2016-08-20T00:41:02.803Z,0
2016-08-20T00:42:04.127Z,0
2016-08-20T00:43:05.121Z,0
2016-08-20T00:44:02.295Z,0
2016-08-20T00:45:02.265Z,0
2016-08-20T00:46:04.706Z,0
2016-08-20T00:47:04.873Z,0
2016-08-20T00:48:03.313Z,0
2016-08-20T00:49:02.660Z,0
2016-08-20T00:50:03.757Z,0
2016-08-20T00:51:05.819Z,0
2016-08-20T00:52:04.781Z,0
2016-08-20T00:53:05.523Z,0
2016-08-20T00:54:04.122Z,0
2016-08-20T00:55:02.193Z,0
2016-08-20T00:56:03.512Z,0
2016-08-20T00:57:02.889Z,0
2016-08-20T00:58:04.442Z,0
2016-08-20T00:59:03.311Z,0
2016-08-20T01:00:05.401Z,0
2016-08-20T01:01:03.487Z,0
2016-08-20T01:02:02.621Z,0
2016-08-20T01:03:02.897Z,0
2016-08-20T01:04:04.504Z,0
2016-08-20T01:05:05.016Z,0
2016-08-20T01:06:06.794Z,0
2016-08-20T01:07:04.328Z,0
2016-08-20T01:08:04.970Z,0
2016-08-20T01:09:02.397Z,0
2016-08-20T01:10:03.042Z,0
2016-08-20T01:11:03.681Z,0
2016-08-20T01:12:06.004Z,0
2016-08-20T01:13:04.905Z,0
2016-08-20T01:14:03.269Z,0
2016-08-20T01:15:04.634Z,0
2016-08-20T01:16:07.535Z,0
2016-08-20T01:17:04.746Z,0
2016-08-20T01:18:04.958Z,0
2016-08-20T01:19:04.111Z,0
2016-08-20T01:20:04.865Z,0
2016-08-20T01:21:04.306Z,0
2016-08-20T01:22:04.409Z,0
2016-08-20T01:23:07.692Z,0
2016-08-20T01:24:03.989Z,0
2016-08-20T01:25:04.663Z,0
2016-08-20T01:26:03.795Z,0
2016-08-20T01:27:01.898Z,0
2016-08-20T01:28:04.786Z,0
2016-08-20T01:29:04.011Z,0
2016-08-20T01:30:05.196Z,0
2016-08-20T01:31:04.519Z,0
2016-08-20T01:32:05.522Z,0
2016-08-20T01:33:03.363Z,0
2016-08-20T01:34:04.644Z,0
2016-08-20T01:35:06.588Z,0
2016-08-20T01:36:04.769Z,0
2016-08-20T01:37:05.656Z,0
2016-08-20T01:38:04.351Z,0
2016-08-20T01:39:05.511Z,0
2016-08-20T01:40:03.934Z,0
2016-08-20T01:41:05.570Z,0
2016-08-20T01:42:04.662Z,0
2016-08-20T01:43:05.622Z,0
2016-08-20T01:44:05.445Z,0
2016-08-20T01:45:05.874Z,0
2016-08-20T01:46:04.352Z,0
2016-08-20T01:47:04.874Z,0
2016-08-20T01:48:04.483Z,0
2016-08-20T01:49:04.333Z,0
2016-08-20T01:50:05.266Z,0
2016-08-20T01:51:05.442Z,0
2016-08-20T01:52:04.301Z,0
2016-08-20T01:53:05.377Z,0
2016-08-20T01:54:04.056Z,0
2016-08-20T01:55:04.585Z,0
2016-08-20T01:56:06.490Z,0
2016-08-20T01:57:04.753Z,0
2016-08-20T01:58:05.256Z,0
2016-08-20T01:59:07.010Z,0
2016-08-20T02:00:08.757Z,0
2016-08-20T02:01:06.880Z,0
2016-08-20T02:02:03.781Z,0
2016-08-20T02:03:04.217Z,0
2016-08-20T02:04:04.596Z,0
2016-08-20T02:05:06.418Z,0
2016-08-20T02:06:05.526Z,0
2016-08-20T02:07:05.260Z,0
2016-08-20T02:08:05.454Z,0
2016-08-20T02:09:06.740Z,0
2016-08-20T02:10:05.336Z,0
2016-08-20T02:11:04.963Z,0
2016-08-20T02:12:03.986Z,0
2016-08-20T02:13:05.177Z,0
2016-08-20T02:14:04.920Z,0
2016-08-20T02:15:04.768Z,0
2016-08-20T02:16:05.966Z,0
2016-08-20T02:17:06.260Z,0
2016-08-20T02:18:07.474Z,0
2016-08-20T02:19:06.495Z,0
2016-08-20T02:20:06.106Z,0
2016-08-20T02:21:05.281Z,0
2016-08-20T02:22:05.176Z,0
2016-08-20T02:23:05.975Z,0
2016-08-20T02:24:05.082Z,0
2016-08-20T02:25:05.157Z,0
2016-08-20T02:26:04.810Z,0
2016-08-20T02:27:07.073Z,0
2016-08-20T02:28:05.267Z,0
2016-08-20T02:29:08.793Z,0
2016-08-20T02:30:07.798Z,0
2016-08-20T02:31:06.616Z,0
2016-08-20T02:32:06.868Z,0
2016-08-20T02:33:04.683Z,0
2016-08-20T02:34:05.785Z,0
2016-08-20T02:35:06.319Z,0
2016-08-20T02:36:07.142Z,0
2016-08-20T02:37:06.443Z,0
2016-08-20T02:38:09.107Z,0
2016-08-20T02:39:05.525Z,0
2016-08-20T02:40:07.508Z,0
2016-08-20T02:41:05.125Z,0
2016-08-20T02:42:05.713Z,0
2016-08-20T02:43:07.407Z,0
2016-08-20T02:44:05.992Z,0
2016-08-20T02:45:07.547Z,0
2016-08-20T02:46:06.404Z,0
2016-08-20T02:47:05.937Z,0
2016-08-20T02:48:04.714Z,0
2016-08-20T02:49:05.867Z,0
2016-08-20T02:50:05.643Z,0
2016-08-20T02:51:07.549Z,0
2016-08-20T02:52:08.783Z,0
2016-08-20T02:53:06.314Z,0
2016-08-20T02:54:07.587Z,0
2016-08-20T02:55:08.367Z,0
2016-08-20T02:56:06.902Z,0
2016-08-20T02:57:07.401Z,0
2016-08-20T02:58:08.139Z,0
2016-08-20T02:59:08.568Z,0
2016-08-20T03:00:07.930Z,0
2016-08-20T03:01:08.249Z,0
2016-08-20T03:02:06.825Z,0
2016-08-20T03:03:11.485Z,0
2016-08-20T03:04:06.902Z,0
2016-08-20T03:05:08.343Z,0
2016-08-20T03:06:09.360Z,0
2016-08-20T03:07:07.043Z,0
2016-08-20T03:08:06.935Z,0
2016-08-20T03:09:05.174Z,0
2016-08-20T03:10:05.517Z,0
2016-08-20T03:11:08.480Z,0
2016-08-20T03:12:08.151Z,0
2016-08-20T03:13:07.458Z,0
2016-08-20T03:14:07.103Z,0
2016-08-20T03:15:07.693Z,0
2016-08-20T03:16:08.262Z,0
2016-08-20T03:17:05.686Z,0
2016-08-20T03:18:07.272Z,0
2016-08-20T03:19:08.342Z,0
2016-08-20T03:20:06.082Z,0
2016-08-20T03:21:05.111Z,0
2016-08-20T03:22:09.237Z,0
2016-08-20T03:23:05.853Z,0
2016-08-20T03:24:09.078Z,0
2016-08-20T03:25:09.896Z,0
2016-08-20T03:26:07.713Z,0
2016-08-20T03:27:10.018Z,0
2016-08-20T03:28:09.161Z,0
2016-08-20T03:29:08.135Z,0
2016-08-20T03:30:06.853Z,0
2016-08-20T03:31:08.044Z,0
2016-08-20T03:32:07.241Z,0
2016-08-20T03:33:06.140Z,0
2016-08-20T03:34:09.196Z,0
2016-08-20T03:35:09.362Z,0
2016-08-20T03:36:08.385Z,0
2016-08-20T03:37:09.510Z,0
2016-08-20T03:38:08.970Z,0
2016-08-20T03:39:07.790Z,0
2016-08-20T03:40:06.056Z,0
2016-08-20T03:41:08.685Z,0
2016-08-20T03:42:06.783Z,0
2016-08-20T03:43:08.414Z,0
2016-08-20T03:44:08.221Z,0
2016-08-20T03:45:09.203Z,0
2016-08-20T03:46:07.693Z,0
2016-08-20T03:47:07.979Z,0
2016-08-20T03:48:08.017Z,0
2016-08-20T03:49:07.528Z,0
2016-08-20T03:50:06.530Z,0
2016-08-20T03:51:09.049Z,0
2016-08-20T03:52:08.878Z,0
2016-08-20T03:53:08.999Z,0
2016-08-20T03:54:11.430Z,0
2016-08-20T03:55:09.959Z,0
2016-08-20T03:56:08.472Z,0
2016-08-20T03:57:08.909Z,0
2016-08-20T03:58:07.208Z,0
2016-08-20T03:59:08.902Z,0
2016-08-20T04:00:08.344Z,0
2016-08-20T04:01:08.544Z,0
2016-08-20T04:02:09.235Z,0
2016-08-20T04:03:10.097Z,0
2016-08-20T04:04:09.862Z,0
2016-08-20T04:05:08.394Z,0
2016-08-20T04:06:07.413Z,0
2016-08-20T04:07:07.984Z,0
2016-08-20T04:08:11.556Z,0
2016-08-20T04:09:09.184Z,0
2016-08-20T04:10:09.567Z,0
2016-08-20T04:11:08.786Z,0
2016-08-20T04:12:07.134Z,5
2016-08-20T04:13:07.786Z,5
2016-08-20T04:14:07.433Z,5
2016-08-20T04:15:10.775Z,5
2016-08-20T04:16:10.025Z,5
2016-08-20T04:17:10.242Z,5
2016-08-20T04:18:08.799Z,5
2016-08-20T04:19:09.441Z,5
2016-08-20T04:20:10.806Z,5
2016-08-20T04:21:07.725Z,5
2016-08-20T04:22:07.960Z,10
2016-08-20T04:23:05.168Z,10
2016-08-20T04:24:09.764Z,10
2016-08-20T04:25:09.425Z,15
2016-08-20T04:26:09.586Z,15
2016-08-20T04:27:09.605Z,15
2016-08-20T04:28:08.141Z,15
2016-08-20T04:29:08.166Z,15
2016-08-20T04:30:08.026Z,20
2016-08-20T04:31:08.422Z,20
2016-08-20T04:32:11.695Z,25
2016-08-20T04:33:09.149Z,30
2016-08-20T04:34:09.066Z,30
2016-08-20T04:35:10.443Z,35
2016-08-20T04:36:09.914Z,35
2016-08-20T04:37:09.268Z,40
2016-08-20T04:38:09.534Z,40
2016-08-20T04:39:09.993Z,40
2016-08-20T04:40:09.572Z,40
2016-08-20T04:41:11.424Z,40
2016-08-20T04:42:10.305Z,45
2016-08-20T04:43:11.427Z,45
2016-08-20T04:44:11.005Z,50
2016-08-20T04:45:10.792Z,50
2016-08-20T04:46:10.072Z,50
2016-08-20T04:47:11.037Z,45
2016-08-20T04:48:08.452Z,45
2016-08-20T04:49:12.954Z,50
2016-08-20T04:50:10.491Z,50
2016-08-20T04:51:10.550Z,55
2016-08-20T04:52:10.502Z,55
2016-08-20T04:53:08.297Z,55
2016-08-20T04:54:10.464Z,60
2016-08-20T04:55:10.382Z,65
2016-08-20T04:56:08.967Z,65
2016-08-20T04:57:09.113Z,70
2016-08-20T04:58:10.431Z,80
2016-08-20T04:59:11.033Z,85
2016-08-20T05:00:11.384Z,95
2016-08-20T05:01:08.228Z,105
2016-08-20T05:02:09.382Z,110
2016-08-20T05:03:10.154Z,120
2016-08-20T05:04:12.817Z,120
2016-08-20T05:05:09.442Z,115
2016-08-20T05:06:10.881Z,105
2016-08-20T05:07:11.550Z,105
2016-08-20T05:08:09.527Z,105
2016-08-20T05:09:09.378Z,105
2016-08-20T05:10:11.368Z,100
2016-08-20T05:11:09.650Z,95
2016-08-20T05:12:10.473Z,85
2016-08-20T05:13:11.528Z,70
2016-08-20T05:14:10.652Z,70
2016-08-20T05:15:09.974Z,70
2016-08-20T05:16:11.107Z,70
2016-08-20T05:17:09.792Z,65
2016-08-20T05:18:10.263Z,65
2016-08-20T05:19:10.497Z,65
2016-08-20T05:20:10.671Z,65
2016-08-20T05:21:10.824Z,65
2016-08-20T05:22:10.360Z,60
2016-08-20T05:23:08.925Z,55
2016-08-20T05:24:12.244Z,60
2016-08-20T05:25:10.889Z,60
2016-08-20T05:26:09.494Z,65
2016-08-20T05:27:08.849Z,65
2016-08-20T05:28:12.377Z,65
2016-08-20T05:29:10.573Z,65
2016-08-20T05:30:09.564Z,70
2016-08-20T05:31:11.035Z,75
2016-08-20T05:32:11.050Z,80
2016-08-20T05:33:09.068Z,85
2016-08-20T05:34:12.656Z,85
2016-08-20T05:35:10.206Z,85
2016-08-20T05:36:11.947Z,80
2016-08-20T05:37:10.266Z,75
2016-08-20T05:38:10.120Z,75
2016-08-20T05:39:13.087Z,70
2016-08-20T05:40:12.014Z,70
2016-08-20T05:41:10.158Z,70
2016-08-20T05:42:11.716Z,75
2016-08-20T05:43:15.953Z,75
2016-08-20T05:44:11.452Z,75
2016-08-20T05:45:13.913Z,80
2016-08-20T05:46:12.770Z,85
2016-08-20T05:47:12.135Z,85
2016-08-20T05:48:09.201Z,80
2016-08-20T05:49:12.628Z,75
2016-08-20T05:50:12.422Z,80
2016-08-20T05:51:13.568Z,85
2016-08-20T05:52:12.932Z,95
2016-08-20T05:53:13.441Z,110
2016-08-20T05:54:10.980Z,130
2016-08-20T05:55:11.287Z,155
2016-08-20T05:56:11.927Z,170
2016-08-20T05:57:14.154Z,170
2016-08-20T05:58:12.524Z,160
2016-08-20T05:59:12.683Z,160
2016-08-20T06:00:11.839Z,160
2016-08-20T06:01:11.967Z,165
2016-08-20T06:02:12.078Z,175
2016-08-20T06:03:13.278Z,200
2016-08-20T06:04:11.898Z,220
2016-08-20T06:05:13.927Z,220
2016-08-20T06:06:11.727Z,200
2016-08-20T06:07:10.222Z,185
2016-08-20T06:08:10.140Z,170
2016-08-20T06:09:11.210Z,165
2016-08-20T06:10:13.620Z,175
2016-08-20T06:11:12.348Z,195
2016-08-20T06:12:14.582Z,220
2016-08-20T06:13:12.675Z,260
2016-08-20T06:14:13.560Z,325
2016-08-20T06:15:11.492Z,395
2016-08-20T06:16:13.416Z,470
2016-08-20T06:17:10.622Z,505
2016-08-20T06:18:13.539Z,555
2016-08-20T06:19:11.597Z,605
2016-08-20T06:20:14.468Z,605
2016-08-20T06:21:11.143Z,555
2016-08-20T06:22:13.598Z,485
2016-08-20T06:23:11.532Z,485
2016-08-20T06:24:11.266Z,530
2016-08-20T06:25:13.052Z,570
2016-08-20T06:26:13.187Z,585
2016-08-20T06:27:12.465Z,560
2016-08-20T06:28:13.302Z,580
2016-08-20T06:29:12.911Z,620
2016-08-20T06:30:11.820Z,655
2016-08-20T06:31:13.915Z,670
2016-08-20T06:32:11.338Z,685
2016-08-20T06:33:13.001Z,710
2016-08-20T06:34:12.854Z,695
2016-08-20T06:35:15.656Z,660
2016-08-20T06:36:12.946Z,620
2016-08-20T06:37:16.023Z,585
2016-08-20T06:38:13.671Z,560
2016-08-20T06:39:13.490Z,550
2016-08-20T06:40:12.924Z,550
2016-08-20T06:41:11.881Z,555
2016-08-20T06:42:13.462Z,550
2016-08-20T06:43:14.160Z,560
2016-08-20T06:44:13.675Z,570
2016-08-20T06:45:13.083Z,550
2016-08-20T06:46:12.700Z,540
2016-08-20T06:47:13.481Z,540
2016-08-20T06:48:13.673Z,560
2016-08-20T06:49:11.407Z,560
2016-08-20T06:50:13.243Z,530
2016-08-20T06:51:12.122Z,515
2016-08-20T06:52:12.210Z,515
2016-08-20T06:53:13.163Z,505
2016-08-20T06:54:13.097Z,490
2016-08-20T06:55:12.540Z,465
2016-08-20T06:56:13.353Z,460
2016-08-20T06:57:12.754Z,465
2016-08-20T06:58:16.417Z,470
2016-08-20T06:59:13.131Z,475
2016-08-20T07:00:12.107Z,480
2016-08-20T07:01:14.005Z,495
2016-08-20T07:02:12.915Z,510
2016-08-20T07:03:13.888Z,530
2016-08-20T07:04:11.649Z,545
2016-08-20T07:05:13.425Z,550
2016-08-20T07:06:12.599Z,560
2016-08-20T07:07:11.838Z,580
2016-08-20T07:08:13.948Z,580
2016-08-20T07:09:13.530Z,535
2016-08-20T07:10:13.651Z,535
2016-08-20T07:11:15.067Z,610
2016-08-20T07:12:13.539Z,640
2016-08-20T07:13:13.978Z,650
2016-08-20T07:14:13.015Z,610
2016-08-20T07:15:14.602Z,600
2016-08-20T07:16:15.074Z,585
2016-08-20T07:17:14.125Z,605
2016-08-20T07:18:12.369Z,660
2016-08-20T07:19:13.243Z,650
2016-08-20T07:20:13.315Z,625
2016-08-20T07:21:14.026Z,595
2016-08-20T07:22:13.251Z,560
2016-08-20T07:23:13.509Z,535
2016-08-20T07:24:16.909Z,525
2016-08-20T07:25:14.146Z,540
2016-08-20T07:26:13.719Z,560
2016-08-20T07:27:15.139Z,545
2016-08-20T07:28:15.068Z,545
2016-08-20T07:29:13.781Z,535
2016-08-20T07:30:13.034Z,530
2016-08-20T07:31:15.625Z,525
2016-08-20T07:32:13.007Z,540
2016-08-20T07:33:13.777Z,525
2016-08-20T07:34:12.986Z,550
2016-08-20T07:35:13.270Z,585
2016-08-20T07:36:16.272Z,615
2016-08-20T07:37:12.386Z,620
2016-08-20T07:38:13.385Z,620
2016-08-20T07:39:15.280Z,635
2016-08-20T07:40:15.047Z,665
2016-08-20T07:41:14.249Z,690
2016-08-20T07:42:14.514Z,735
2016-08-20T07:43:14.984Z,785
2016-08-20T07:44:15.516Z,825
2016-08-20T07:45:14.632Z,790
2016-08-20T07:46:13.410Z,730
2016-08-20T07:47:12.735Z,695
2016-08-20T07:48:13.450Z,710
2016-08-20T07:49:13.719Z,710
2016-08-20T07:50:15.448Z,695
2016-08-20T07:51:14.720Z,720
2016-08-20T07:52:15.916Z,750
2016-08-20T07:53:15.765Z,775
2016-08-20T07:54:15.184Z,745
2016-08-20T07:55:15.735Z,690
2016-08-20T07:56:16.019Z,705
2016-08-20T07:57:17.144Z,730
2016-08-20T07:58:16.401Z,715
2016-08-20T07:59:16.145Z,670
2016-08-20T08:00:14.432Z,630
2016-08-20T08:01:14.273Z,590
2016-08-20T08:02:13.965Z,590
2016-08-20T08:03:16.712Z,565
2016-08-20T08:04:12.518Z,575
2016-08-20T08:05:15.584Z,560
2016-08-20T08:06:12.782Z,555
2016-08-20T08:07:14.095Z,545
2016-08-20T08:08:14.996Z,560
2016-08-20T08:09:14.607Z,610
2016-08-20T08:10:16.385Z,605
2016-08-20T08:11:16.448Z,575
2016-08-20T08:12:16.226Z,560
2016-08-20T08:13:12.439Z,570
2016-08-20T08:14:16.501Z,600
2016-08-20T08:15:16.149Z,690
2016-08-20T08:16:14.945Z,780
2016-08-20T08:17:14.144Z,845
2016-08-20T08:18:16.122Z,850
2016-08-20T08:19:14.436Z,885
2016-08-20T08:20:15.694Z,920
2016-08-20T08:21:13.223Z,905
2016-08-20T08:22:15.101Z,920
2016-08-20T08:23:13.252Z,925
2016-08-20T08:24:17.766Z,940
2016-08-20T08:25:16.120Z,955
2016-08-20T08:26:15.463Z,920
2016-08-20T08:27:15.688Z,910
2016-08-20T08:28:15.864Z,900
2016-08-20T08:29:16.901Z,895
2016-08-20T08:30:19.042Z,835
2016-08-20T08:31:16.011Z,765
2016-08-20T08:32:16.345Z,755
2016-08-20T08:33:17.751Z,785
2016-08-20T08:34:15.965Z,830
2016-08-20T08:35:15.907Z,825
2016-08-20T08:36:14.519Z,815
2016-08-20T08:37:17.453Z,815
2016-08-20T08:38:15.386Z,865
2016-08-20T08:39:15.470Z,965
2016-08-20T08:40:15.224Z,1025
2016-08-20T08:41:15.710Z,1065
2016-08-20T08:42:15.629Z,1025
2016-08-20T08:43:15.877Z,1095
2016-08-20T08:44:17.597Z,1085
2016-08-20T08:45:15.840Z,980
2016-08-20T08:46:15.928Z,830
2016-08-20T08:47:20.457Z,765
2016-08-20T08:48:16.872Z,795
2016-08-20T08:49:15.386Z,825
2016-08-20T08:50:16.565Z,840
2016-08-20T08:51:15.914Z,875
2016-08-20T08:52:15.895Z,895
2016-08-20T08:53:15.873Z,890
2016-08-20T08:54:15.481Z,885
2016-08-20T08:55:19.522Z,915
2016-08-20T08:56:18.314Z,930
2016-08-20T08:57:16.345Z,910
2016-08-20T08:58:16.991Z,910
2016-08-20T08:59:16.607Z,955
2016-08-20T09:00:17.278Z,1035
2016-08-20T09:01:15.914Z,1055
2016-08-20T09:02:17.139Z,1005
2016-08-20T09:03:17.657Z,995
2016-08-20T09:04:16.255Z,1025
2016-08-20T09:05:16.228Z,1040
2016-08-20T09:06:15.480Z,1065
2016-08-20T09:07:17.627Z,1070
2016-08-20T09:08:17.345Z,1035
2016-08-20T09:09:17.683Z,1025
2016-08-20T09:10:17.615Z,1065
2016-08-20T09:11:16.719Z,1135
2016-08-20T09:12:18.929Z,1185
2016-08-20T09:13:16.518Z,1240
2016-08-20T09:14:17.883Z,1410
2016-08-20T09:15:17.872Z,1935
2016-08-20T09:16:16.935Z,1590
2016-08-20T09:17:17.128Z,1410
2016-08-20T09:18:19.134Z,1265
2016-08-20T09:19:17.775Z,1100
2016-08-20T09:20:16.916Z,945
2016-08-20T09:21:17.440Z,875
2016-08-20T09:22:17.552Z,915
2016-08-20T09:23:17.531Z,1020
2016-08-20T09:24:15.505Z,1080
2016-08-20T09:25:15.889Z,1180
2016-08-20T09:26:16.206Z,1395
2016-08-20T09:27:17.782Z,1490
2016-08-20T09:28:16.068Z,1405
2016-08-20T09:29:17.278Z,1415
2016-08-20T09:30:15.579Z,1585
2016-08-20T09:31:18.280Z,1455
2016-08-20T09:32:16.031Z,1540
2016-08-20T09:33:15.793Z,1460
2016-08-20T09:34:18.143Z,1880
2016-08-20T09:35:19.265Z,2070
2016-08-20T09:36:16.371Z,1860
2016-08-20T09:37:18.488Z,1845
2016-08-20T09:38:18.481Z,2150
2016-08-20T09:39:17.636Z,2160
2016-08-20T09:40:16.914Z,2210
2016-08-20T09:41:19.015Z,1785
2016-08-20T09:42:17.627Z,1805
2016-08-20T09:43:17.307Z,2055
2016-08-20T09:44:18.832Z,1860
2016-08-20T09:45:18.104Z,1900
2016-08-20T09:46:19.584Z,1895
2016-08-20T09:47:19.647Z,1675
2016-08-20T09:48:18.147Z,1630
2016-08-20T09:49:17.139Z,1680
2016-08-20T09:50:18.999Z,1835
2016-08-20T09:51:18.491Z,2130
2016-08-20T09:52:18.883Z,1900
2016-08-20T09:53:17.264Z,1800
2016-08-20T09:54:16.205Z,2205
2016-08-20T09:55:18.338Z,1895
2016-08-20T09:56:17.908Z,1680
2016-08-20T09:57:19.303Z,1505
2016-08-20T09:58:15.751Z,1340
2016-08-20T09:59:18.245Z,1215
2016-08-20T10:00:18.956Z,1155
2016-08-20T10:01:21.495Z,1070
2016-08-20T10:02:19.854Z,960
2016-08-20T10:03:17.649Z,805
2016-08-20T10:04:18.289Z,650
2016-08-20T10:05:20.089Z,545
2016-08-20T10:06:17.516Z,485
2016-08-20T10:07:17.546Z,415
2016-08-20T10:08:18.674Z,360
2016-08-20T10:09:18.560Z,320
2016-08-20T10:10:17.977Z,285
2016-08-20T10:11:19.961Z,255
2016-08-20T10:12:19.530Z,260
2016-08-20T10:13:17.332Z,265
2016-08-20T10:14:23.529Z,265
2016-08-20T10:15:21.948Z,280
2016-08-20T10:16:21.921Z,305
2016-08-20T10:17:19.620Z,335
2016-08-20T10:18:22.241Z,370
2016-08-20T10:19:22.216Z,380
2016-08-20T10:20:22.176Z,360
2016-08-20T10:21:22.740Z,345
2016-08-20T10:22:21.810Z,325
2016-08-20T10:23:21.716Z,335
2016-08-20T10:24:17.658Z,375
2016-08-20T10:25:19.433Z,470
2016-08-20T10:26:17.482Z,590
2016-08-20T10:27:19.899Z,675
2016-08-20T10:28:21.976Z,705
2016-08-20T10:29:20.315Z,710
2016-08-20T10:30:20.498Z,750
2016-08-20T10:31:18.328Z,790
2016-08-20T10:32:20.340Z,800
2016-08-20T10:33:19.092Z,795
2016-08-20T10:34:20.156Z,815
2016-08-20T10:35:19.705Z,800
2016-08-20T10:36:18.391Z,700
2016-08-20T10:37:17.738Z,595
2016-08-20T10:38:18.903Z,510
2016-08-20T10:39:20.629Z,440
2016-08-20T10:40:18.751Z,375
2016-08-20T10:41:20.286Z,310
2016-08-20T10:42:18.283Z,280
2016-08-20T10:43:19.654Z,255
2016-08-20T10:44:19.144Z,235
2016-08-20T10:45:19.803Z,250
2016-08-20T10:46:20.569Z,265
2016-08-20T10:47:20.341Z,285
2016-08-20T10:48:21.070Z,335
2016-08-20T10:49:20.459Z,375
2016-08-20T10:50:20.416Z,380
2016-08-20T10:51:20.240Z,365
2016-08-20T10:52:21.176Z,305
2016-08-20T10:53:19.037Z,240
2016-08-20T10:54:20.766Z,190
2016-08-20T10:55:20.078Z,170
2016-08-20T10:56:20.256Z,165
2016-08-20T10:57:22.046Z,165
2016-08-20T10:58:19.381Z,160
2016-08-20T10:59:21.411Z,165
2016-08-20T11:00:20.475Z,170
2016-08-20T11:01:20.708Z,180
2016-08-20T11:04:19.498Z,230
2016-08-20T11:05:20.973Z,265
2016-08-20T11:06:19.395Z,280
2016-08-20T11:07:21.959Z,290
2016-08-20T11:08:21.142Z,285
2016-08-20T11:09:20.417Z,255
2016-08-20T11:10:20.359Z,210
2016-08-20T11:11:19.804Z,165
2016-08-20T11:12:19.878Z,140
2016-08-20T11:13:22.930Z,130
2016-08-20T11:14:20.007Z,145
2016-08-20T11:15:21.452Z,210
2016-08-20T11:16:23.111Z,320
2016-08-20T11:17:21.261Z,415
2016-08-20T11:18:21.731Z,475
2016-08-20T11:19:20.387Z,580
2016-08-20T11:21:19.787Z,870
2016-08-20T11:22:23.509Z,955
2016-08-20T11:23:21.137Z,1095
2016-08-20T11:24:20.730Z,1330
2016-08-20T11:25:20.502Z,1540
2016-08-20T11:26:20.929Z,1645
2016-08-20T11:27:22.362Z,1685
2016-08-20T11:28:23.670Z,1725
2016-08-20T11:29:21.521Z,1755
2016-08-20T11:30:20.642Z,1955
2016-08-20T11:31:21.496Z,1835
2016-08-20T11:32:20.264Z,2425
2016-08-20T11:33:24.349Z,1945
2016-08-20T11:34:20.990Z,2280
2016-08-20T11:35:21.798Z,2180
2016-08-20T11:36:22.035Z,2195
2016-08-20T11:37:22.664Z,2550
2016-08-20T11:38:20.184Z,2660
2016-08-20T11:39:22.594Z,2425
2016-08-20T11:40:22.527Z,2545
2016-08-20T11:41:20.007Z,1925
2016-08-20T11:42:22.266Z,1925
2016-08-20T11:43:20.283Z,1685
2016-08-20T11:44:19.515Z,1585
2016-08-20T11:45:22.300Z,1440
2016-08-20T11:46:22.218Z,1340
2016-08-20T11:47:21.716Z,1230
2016-08-20T11:48:23.742Z,1135
2016-08-20T11:49:20.018Z,1085
2016-08-20T11:50:22.085Z,1050
2016-08-20T11:51:21.555Z,1055
2016-08-20T11:52:20.160Z,1140
2016-08-20T11:53:20.228Z,1270
2016-08-20T11:54:22.450Z,1490
2016-08-20T11:55:21.522Z,1555
2016-08-20T11:56:23.974Z,1525
2016-08-20T11:57:23.994Z,1470
2016-08-20T11:58:24.152Z,1400
2016-08-20T11:59:21.665Z,1370
2016-08-20T12:00:21.621Z,1360
2016-08-20T12:01:21.617Z,1380
2016-08-20T12:02:22.041Z,1475
2016-08-20T12:03:21.387Z,1600
2016-08-20T12:04:21.808Z,1675
2016-08-20T12:05:22.359Z,1740
2016-08-20T12:06:20.368Z,1705
2016-08-20T12:07:24.182Z,1670
2016-08-20T12:08:23.991Z,1675
2016-08-20T12:09:25.030Z,1780
2016-08-20T12:10:22.850Z,1780
2016-08-20T12:11:22.920Z,2180
2016-08-20T12:12:22.006Z,2210
2016-08-20T12:13:23.259Z,1880
2016-08-20T12:14:24.002Z,1615
2016-08-20T12:15:25.328Z,1475
2016-08-20T12:16:26.226Z,1460
2016-08-20T12:17:26.252Z,1500
2016-08-20T12:18:21.361Z,1600
2016-08-20T12:19:21.685Z,1735
2016-08-20T12:20:21.883Z,1635
2016-08-20T12:21:24.768Z,1630
2016-08-20T12:22:23.275Z,1700
2016-08-20T12:23:23.207Z,1990
2016-08-20T12:24:22.078Z,1895
2016-08-20T12:25:23.484Z,1730
2016-08-20T12:26:22.199Z,1655
2016-08-20T12:27:22.001Z,1610
2016-08-20T12:28:22.738Z,1590
2016-08-20T12:29:23.121Z,1615
2016-08-20T12:30:22.012Z,1595
2016-08-20T12:31:24.560Z,1685
2016-08-20T12:32:20.569Z,1720
2016-08-20T12:33:21.347Z,1825
2016-08-20T12:34:23.267Z,1730
2016-08-20T12:35:22.287Z,1610
2016-08-20T12:36:21.364Z,1515
2016-08-20T12:37:22.061Z,1410
2016-08-20T12:38:22.472Z,1390
2016-08-20T12:39:23.611Z,1815
2016-08-20T12:40:21.080Z,1450
2016-08-20T12:41:23.222Z,1365
2016-08-20T12:42:24.807Z,1500
2016-08-20T12:43:22.900Z,1385
2016-08-20T12:44:21.314Z,1615
2016-08-20T12:45:22.992Z,1655
2016-08-20T12:46:23.536Z,1370
2016-08-20T12:47:22.658Z,1270
2016-08-20T12:48:22.537Z,1225
2016-08-20T12:49:23.108Z,1215
2016-08-20T12:50:24.426Z,1260
2016-08-20T12:51:23.278Z,1340
2016-08-20T12:52:22.498Z,1310
2016-08-20T12:53:23.851Z,1290
2016-08-20T12:54:23.888Z,1245
2016-08-20T12:55:24.349Z,1250
2016-08-20T12:56:24.352Z,1320
2016-08-20T12:57:24.362Z,1385
2016-08-20T12:58:24.638Z,1410
2016-08-20T12:59:23.573Z,1495
2016-08-20T13:00:25.492Z,1455
2016-08-20T13:01:24.223Z,1435
2016-08-20T13:02:25.586Z,1385
2016-08-20T13:03:25.462Z,1330
2016-08-20T13:04:24.347Z,1305
2016-08-20T13:05:23.891Z,1340
2016-08-20T13:06:24.512Z,1315
2016-08-20T13:07:23.265Z,1215
2016-08-20T13:08:24.399Z,980
2016-08-20T13:09:25.064Z,750
2016-08-20T13:10:23.961Z,650
2016-08-20T13:11:24.775Z,695
2016-08-20T13:12:26.973Z,785
2016-08-20T13:13:24.195Z,780
2016-08-20T13:14:24.835Z,755
2016-08-20T13:15:24.449Z,805
2016-08-20T13:16:24.121Z,885
2016-08-20T13:17:26.725Z,975
2016-08-20T13:18:26.688Z,1045
2016-08-20T13:19:27.485Z,1070
2016-08-20T13:20:25.258Z,1040
2016-08-20T13:21:23.782Z,975
2016-08-20T13:22:24.693Z,900
2016-08-20T13:23:24.409Z,840
2016-08-20T13:24:23.275Z,800
2016-08-20T13:25:26.824Z,760
2016-08-20T13:26:25.297Z,705
2016-08-20T13:27:27.982Z,640
2016-08-20T13:28:27.039Z,585
2016-08-20T13:29:25.019Z,535
2016-08-20T13:30:26.893Z,485
2016-08-20T13:31:25.587Z,455
2016-08-20T13:32:24.472Z,445
2016-08-20T13:33:26.568Z,460
2016-08-20T13:34:26.786Z,480
2016-08-20T13:35:28.073Z,490
2016-08-20T13:36:23.805Z,480
2016-08-20T13:37:25.872Z,435
2016-08-20T13:38:24.282Z,390
2016-08-20T13:39:24.854Z,355
2016-08-20T13:40:24.416Z,345
2016-08-20T13:41:25.501Z,350
2016-08-20T13:42:24.706Z,345
2016-08-20T13:43:25.247Z,325
2016-08-20T13:44:23.364Z,310
2016-08-20T13:45:27.117Z,295
2016-08-20T13:46:24.924Z,290
2016-08-20T13:47:24.819Z,290
2016-08-20T13:48:27.014Z,290
2016-08-20T13:49:25.391Z,290
2016-08-20T13:50:24.505Z,295
2016-08-20T13:51:25.542Z,315
2016-08-20T13:52:24.166Z,350
2016-08-20T13:53:27.394Z,420
2016-08-20T13:54:27.435Z,505
2016-08-20T13:55:25.397Z,575
2016-08-20T13:56:26.147Z,610
2016-08-20T13:57:27.609Z,635
2016-08-20T13:58:26.336Z,675
2016-08-20T13:59:27.738Z,735
2016-08-20T14:00:25.103Z,765
2016-08-20T14:01:25.435Z,740
2016-08-20T14:02:26.043Z,705
2016-08-20T14:03:25.478Z,700
2016-08-20T14:04:25.996Z,685